Quill Lake, Canada
Current Conditions -  °F | °C
As of 3:00 PM on Wednesday 26 Nov 2014 (Local Time) from CYBU Reporting Station
Clear Clear  
Wind Chill: -21°   Ceiling: Unl
Heat Index: -6°   Visibility: 9mi
Dew Point: -9°   Wind: 8mph
Humidity: 84%   Direction: 150°SSE
Pressure: 30.45"   Gusts: NA
Location:  52.07°N, 104.25°W
Report Text: CYBU 262100Z AUTO 15007KT 9SM CLR M21/M23 A3045 RMK SLP358
Loading
Personal Weather Stations






























Interactive Weather Map New forecast layout! Learn more

10-Day Weather Forecast

Advertisements
Track Severe Weather on mobile